createdAt,value
2019-01-12T00:00:11.972Z,90.68
2019-01-12T00:02:40.540Z,90.79
2019-01-12T00:05:09.337Z,90.77
2019-01-12T00:07:38.005Z,90.79
2019-01-12T00:10:08.887Z,90.77
2019-01-12T00:12:37.374Z,90.66
2019-01-12T00:15:07.785Z,90.51
2019-01-12T00:17:36.191Z,90.69
2019-01-12T00:20:07.096Z,90.79
2019-01-12T00:22:35.593Z,90.73
2019-01-12T00:25:05.971Z,90.85
2019-01-12T00:27:36.218Z,91.04
2019-01-12T00:30:07.676Z,91.09
2019-01-12T00:32:36.160Z,91.17
2019-01-12T00:35:06.368Z,91.37
2019-01-12T00:37:34.798Z,91.35
2019-01-12T00:40:03.477Z,91.31
2019-01-12T00:42:31.987Z,91.16
2019-01-12T00:45:03.273Z,91.02
2019-01-12T00:47:32.786Z,90.95
2019-01-12T00:50:01.352Z,90.92
2019-01-12T00:52:29.783Z,91.06
2019-01-12T00:54:58.253Z,91.09
2019-01-12T00:57:26.749Z,91.05
2019-01-12T00:59:55.187Z,90.92
2019-01-12T01:02:23.608Z,91.01
2019-01-12T01:04:52.175Z,91.11
2019-01-12T01:07:28.296Z,91.10
2019-01-12T01:09:56.901Z,91.24
2019-01-12T01:12:25.337Z,91.13
2019-01-12T01:14:54.003Z,91.08
2019-01-12T01:17:22.580Z,91.25
2019-01-12T01:19:51.080Z,91.42
2019-01-12T01:22:19.620Z,91.66
2019-01-12T01:24:48.118Z,91.63
2019-01-12T01:27:16.690Z,91.68
2019-01-12T01:29:45.228Z,91.82
2019-01-12T01:32:13.755Z,91.81
2019-01-12T01:34:42.747Z,91.76
2019-01-12T01:37:11.303Z,91.73
2019-01-12T01:39:39.886Z,91.71
2019-01-12T01:42:08.425Z,91.80
2019-01-12T01:44:36.837Z,91.90
2019-01-12T01:47:05.430Z,91.82
2019-01-12T01:49:33.872Z,91.87
2019-01-12T01:52:02.562Z,91.89
2019-01-12T01:54:31.177Z,91.80
2019-01-12T01:56:59.751Z,91.74
2019-01-12T01:59:28.208Z,91.81
2019-01-12T02:01:56.828Z,91.90
2019-01-12T02:04:25.375Z,92.10
2019-01-12T02:06:53.894Z,92.17
2019-01-12T02:09:22.489Z,92.23
2019-01-12T02:11:51.049Z,92.16
2019-01-12T02:14:19.647Z,92.05
2019-01-12T02:16:48.135Z,92.00
2019-01-12T02:19:16.682Z,91.97
2019-01-12T02:21:45.171Z,91.93
2019-01-12T02:24:13.705Z,91.91
2019-01-12T02:26:42.197Z,91.95
2019-01-12T02:29:10.758Z,91.77
2019-01-12T02:31:39.334Z,91.68
2019-01-12T02:34:07.936Z,91.73
2019-01-12T02:36:39.056Z,91.72
2019-01-12T02:39:08.308Z,91.82
2019-01-12T02:41:36.762Z,91.63
2019-01-12T02:44:05.416Z,91.46
2019-01-12T02:46:33.871Z,91.50
2019-01-12T02:49:02.297Z,91.37
2019-01-12T02:51:31.328Z,91.47
2019-01-12T02:53:59.846Z,91.49
2019-01-12T02:56:28.441Z,91.38
2019-01-12T02:58:56.972Z,91.50
2019-01-12T03:01:25.475Z,91.56
2019-01-12T03:03:53.894Z,91.55
2019-01-12T03:06:22.504Z,91.44
2019-01-12T03:08:50.935Z,91.61
2019-01-12T03:11:19.510Z,91.61
2019-01-12T03:13:48.079Z,91.47
2019-01-12T03:16:16.674Z,91.38
2019-01-12T03:18:45.087Z,91.34
2019-01-12T03:21:13.535Z,91.31
2019-01-12T03:23:41.984Z,91.30
2019-01-12T03:26:10.504Z,91.24
2019-01-12T03:28:39.131Z,91.17
2019-01-12T03:31:07.624Z,91.17
2019-01-12T03:33:36.176Z,91.20
2019-01-12T03:36:04.739Z,91.30
2019-01-12T03:38:33.265Z,91.34
2019-01-12T03:41:01.676Z,91.27
2019-01-12T03:43:30.126Z,91.10
2019-01-12T03:45:58.692Z,91.10
2019-01-12T03:48:27.211Z,91.20
2019-01-12T03:50:55.638Z,91.23
2019-01-12T03:53:24.200Z,91.18
2019-01-12T03:55:52.675Z,91.01
2019-01-12T03:58:21.287Z,91.14
2019-01-12T04:00:49.784Z,90.99
2019-01-12T04:03:18.374Z,91.10
2019-01-12T04:05:46.861Z,90.90
2019-01-12T04:08:15.313Z,90.89
2019-01-12T04:10:43.801Z,90.80
2019-01-12T04:13:12.348Z,90.70
2019-01-12T04:15:40.843Z,90.91
2019-01-12T04:18:09.347Z,90.89
2019-01-12T04:20:37.831Z,90.81
2019-01-12T04:23:06.248Z,90.86
2019-01-12T04:25:34.849Z,90.93
2019-01-12T04:28:03.288Z,90.93
2019-01-12T04:30:31.729Z,90.97
2019-01-12T04:33:00.152Z,90.90
2019-01-12T04:35:28.611Z,90.72
2019-01-12T04:37:57.052Z,90.70
2019-01-12T04:40:25.484Z,90.72
2019-01-12T04:42:53.909Z,90.50
2019-01-12T04:45:22.466Z,90.64
2019-01-12T04:47:50.916Z,90.75
2019-01-12T04:50:19.603Z,90.51
2019-01-12T04:52:48.041Z,90.44
2019-01-12T04:55:16.831Z,90.34
2019-01-12T04:57:45.344Z,90.35
2019-01-12T05:00:15.864Z,90.39
2019-01-12T05:02:44.458Z,90.53
2019-01-12T05:05:13.087Z,90.52
2019-01-12T05:07:41.809Z,90.39
2019-01-12T05:10:11.991Z,90.20
2019-01-12T05:12:40.410Z,90.09
2019-01-12T05:15:13.864Z,90.22
2019-01-12T05:17:42.452Z,90.17
2019-01-12T05:20:18.599Z,90.17
2019-01-12T05:22:47.304Z,90.07
2019-01-12T05:25:16.259Z,89.98
2019-01-12T05:27:44.861Z,89.97
2019-01-12T05:30:17.109Z,89.98
2019-01-12T05:32:45.812Z,89.99
2019-01-12T05:35:14.301Z,90.04
2019-01-12T05:37:42.763Z,89.93
2019-01-12T05:40:11.551Z,89.80
2019-01-12T05:42:40.012Z,89.73
2019-01-12T05:45:10.697Z,89.51
2019-01-12T05:47:39.498Z,89.36
2019-01-12T05:50:10.256Z,89.17
2019-01-12T05:52:39.008Z,89.13
2019-01-12T05:55:08.525Z,89.21
2019-01-12T05:57:37.123Z,89.25
2019-01-12T06:00:11.264Z,89.19
2019-01-12T06:02:39.704Z,89.07
2019-01-12T06:05:08.374Z,88.83
2019-01-12T06:07:37.072Z,88.86
2019-01-12T06:10:08.624Z,88.78
2019-01-12T06:12:37.094Z,88.88
2019-01-12T06:15:08.523Z,88.68
2019-01-12T06:17:37.012Z,88.58
2019-01-12T06:20:08.700Z,88.47
2019-01-12T06:22:37.293Z,88.44
2019-01-12T06:25:05.961Z,88.40
2019-01-12T06:27:34.401Z,88.25
2019-01-12T06:30:07.131Z,88.24
2019-01-12T06:32:35.644Z,87.99
2019-01-12T06:35:05.128Z,87.62
2019-01-12T06:37:33.556Z,87.46
2019-01-12T06:40:02.034Z,87.31
2019-01-12T06:42:30.537Z,87.38
2019-01-12T06:44:59.106Z,87.30
2019-01-12T06:47:27.541Z,87.26
2019-01-12T06:49:55.984Z,87.12
2019-01-12T06:52:24.466Z,86.81
2019-01-12T06:54:52.947Z,86.78
2019-01-12T06:57:21.346Z,86.81
2019-01-12T06:59:49.791Z,86.63
2019-01-12T07:02:18.206Z,86.74
2019-01-12T07:04:46.664Z,86.74
2019-01-12T07:07:15.091Z,86.69
2019-01-12T07:09:43.543Z,86.50
2019-01-12T07:12:11.959Z,86.46
2019-01-12T07:14:40.483Z,86.37
2019-01-12T07:17:09.023Z,86.47
2019-01-12T07:19:37.557Z,86.44
2019-01-12T07:22:06.151Z,86.22
2019-01-12T07:24:34.659Z,85.99
2019-01-12T07:27:03.100Z,86.26
2019-01-12T07:29:31.566Z,86.24
2019-01-12T07:32:00.039Z,85.98
2019-01-12T07:34:28.538Z,85.98
2019-01-12T07:36:57.063Z,85.96
2019-01-12T07:39:25.577Z,86.13
2019-01-12T07:41:54.030Z,86.13
2019-01-12T07:44:22.491Z,86.19
2019-01-12T07:46:51.075Z,86.23
2019-01-12T07:49:19.516Z,86.32
2019-01-12T07:51:47.963Z,86.31
2019-01-12T07:54:16.426Z,86.42
2019-01-12T07:56:44.897Z,86.39
2019-01-12T07:59:13.328Z,86.57
2019-01-12T08:01:41.939Z,86.50
2019-01-12T08:04:10.370Z,86.39
2019-01-12T08:06:38.911Z,86.17
2019-01-12T08:09:08.928Z,86.08
2019-01-12T08:11:37.347Z,85.97
2019-01-12T08:14:05.868Z,85.92
2019-01-12T08:16:34.463Z,85.90
2019-01-12T08:19:02.978Z,85.73
2019-01-12T08:21:31.393Z,85.79
2019-01-12T08:23:59.869Z,85.84
2019-01-12T08:26:31.352Z,85.67
2019-01-12T08:28:58.453Z,85.27
2019-01-12T08:31:26.869Z,85.28
2019-01-12T08:33:55.388Z,85.05
2019-01-12T08:36:23.807Z,84.66
2019-01-12T08:38:52.253Z,84.72
2019-01-12T08:41:20.687Z,84.82
2019-01-12T08:43:49.144Z,84.74
2019-01-12T08:46:17.713Z,84.88
2019-01-12T08:48:46.197Z,84.91
2019-01-12T08:51:14.698Z,84.95
2019-01-12T08:53:43.180Z,84.87
2019-01-12T08:56:11.677Z,84.64
2019-01-12T08:58:40.234Z,84.54
2019-01-12T09:01:08.800Z,84.54
2019-01-12T09:03:37.247Z,84.40
2019-01-12T09:06:06.245Z,84.09
2019-01-12T09:08:34.756Z,83.37
2019-01-12T09:11:03.343Z,83.51
2019-01-12T09:13:31.835Z,83.53
2019-01-12T09:16:00.396Z,83.21
2019-01-12T09:18:28.877Z,83.27
2019-01-12T09:20:57.336Z,83.10
2019-01-12T09:23:25.858Z,82.86
2019-01-12T09:25:54.399Z,82.89
2019-01-12T09:28:23.055Z,83.00
2019-01-12T09:30:51.633Z,82.98
2019-01-12T09:33:20.126Z,82.71
2019-01-12T09:35:48.727Z,82.76
2019-01-12T09:38:17.227Z,82.86
2019-01-12T09:40:45.769Z,82.72
2019-01-12T09:43:14.769Z,82.77
2019-01-12T09:45:43.245Z,82.42
2019-01-12T09:48:12.242Z,82.25
2019-01-12T09:50:40.750Z,82.37
2019-01-12T09:53:09.193Z,82.21
2019-01-12T09:55:37.615Z,82.29
2019-01-12T09:58:06.228Z,82.18
2019-01-12T10:00:34.660Z,82.04
2019-01-12T10:03:03.192Z,82.01
2019-01-12T10:05:31.632Z,82.25
2019-01-12T10:08:00.102Z,82.30
2019-01-12T10:10:28.551Z,82.24
2019-01-12T10:12:57.179Z,81.94
2019-01-12T10:15:25.801Z,81.67
2019-01-12T10:17:54.233Z,81.68
2019-01-12T10:20:22.851Z,81.67
2019-01-12T10:22:51.334Z,81.82
2019-01-12T10:25:20.024Z,82.02
2019-01-12T10:27:48.443Z,82.05
2019-01-12T10:30:19.697Z,81.97
2019-01-12T10:32:48.195Z,82.22
2019-01-12T10:35:16.900Z,82.41
2019-01-12T10:37:45.582Z,82.34
2019-01-12T10:40:16.475Z,82.20
2019-01-12T10:42:45.164Z,82.03
2019-01-12T10:45:15.962Z,81.85
2019-01-12T10:47:44.836Z,81.71
2019-01-12T10:50:19.056Z,81.31
2019-01-12T10:52:47.761Z,81.42
2019-01-12T10:55:16.504Z,81.21
2019-01-12T10:57:44.984Z,81.31
2019-01-12T11:00:16.871Z,81.17
2019-01-12T11:02:45.589Z,81.07
2019-01-12T11:05:14.157Z,81.09
2019-01-12T11:07:42.758Z,81.07
2019-01-12T11:10:13.065Z,81.29
2019-01-12T11:12:41.644Z,81.65
2019-01-12T11:15:13.784Z,82.01
2019-01-12T11:17:42.476Z,82.36
2019-01-12T11:20:11.456Z,82.54
2019-01-12T11:22:40.145Z,82.58
2019-01-12T11:25:11.802Z,82.69
2019-01-12T11:27:40.467Z,82.84
2019-01-12T11:30:11.889Z,82.75
2019-01-12T11:32:40.427Z,82.75
2019-01-12T11:35:10.379Z,83.26
2019-01-12T11:37:39.075Z,83.63
2019-01-12T11:40:13.255Z,83.93
2019-01-12T11:42:41.974Z,84.05
2019-01-12T11:45:10.647Z,84.15
2019-01-12T11:47:39.117Z,84.12
2019-01-12T11:50:10.655Z,84.14
2019-01-12T11:52:39.172Z,84.26
2019-01-12T11:55:11.171Z,84.42
2019-01-12T11:57:39.775Z,84.65
2019-01-12T12:00:25.847Z,84.82
2019-01-12T12:02:54.759Z,84.85
2019-01-12T12:05:23.727Z,85.10
2019-01-12T12:07:52.943Z,85.34
2019-01-12T12:10:21.883Z,85.56
2019-01-12T12:12:50.387Z,85.83
2019-01-12T12:15:21.916Z,86.07
2019-01-12T12:17:50.406Z,86.08
2019-01-12T12:20:25.922Z,86.15
2019-01-12T12:22:54.651Z,86.33
2019-01-12T12:25:23.261Z,86.51
2019-01-12T12:27:51.787Z,86.65
2019-01-12T12:30:25.721Z,86.89
2019-01-12T12:32:54.487Z,87.03
2019-01-12T12:35:23.012Z,87.34
2019-01-12T12:37:52.700Z,87.71
2019-01-12T12:40:22.647Z,87.76
2019-01-12T12:42:51.139Z,87.88
2019-01-12T12:45:25.560Z,87.97
2019-01-12T12:47:54.130Z,87.96
2019-01-12T12:50:22.672Z,88.15
2019-01-12T12:52:51.132Z,88.19
2019-01-12T12:55:19.932Z,88.30
2019-01-12T12:57:48.423Z,88.38
2019-01-12T13:00:22.612Z,88.60
2019-01-12T13:02:51.199Z,88.82
2019-01-12T13:05:19.824Z,88.79
2019-01-12T13:07:48.450Z,88.99
2019-01-12T13:10:19.303Z,89.21
2019-01-12T13:12:47.914Z,89.28
2019-01-12T13:15:16.704Z,89.42
2019-01-12T13:17:45.426Z,89.47
2019-01-12T13:20:16.383Z,89.61
2019-01-12T13:22:45.007Z,89.67
2019-01-12T13:25:13.641Z,89.89
2019-01-12T13:27:42.299Z,89.98
2019-01-12T13:30:16.621Z,90.04
2019-01-12T13:32:45.345Z,90.03
2019-01-12T13:35:14.035Z,90.32
2019-01-12T13:37:42.752Z,90.38
2019-01-12T13:40:14.233Z,90.46
2019-01-12T13:42:43.238Z,90.61
2019-01-12T13:45:14.684Z,90.63
2019-01-12T13:47:43.223Z,90.72
2019-01-12T13:50:14.273Z,90.98
2019-01-12T13:52:42.844Z,91.10
2019-01-12T13:55:13.357Z,91.04
2019-01-12T13:57:47.325Z,91.09
2019-01-12T14:00:18.661Z,91.08
2019-01-12T14:02:47.464Z,91.16
2019-01-12T14:05:15.930Z,91.28
2019-01-12T14:07:44.381Z,91.38
2019-01-12T14:10:16.121Z,91.56
2019-01-12T14:12:44.596Z,91.63
2019-01-12T14:15:20.281Z,91.57
2019-01-12T14:17:48.871Z,91.52
2019-01-12T14:20:22.850Z,91.68
2019-01-12T14:22:51.332Z,91.89
2019-01-12T14:25:19.859Z,92.08
2019-01-12T14:27:54.212Z,92.21
2019-01-12T14:30:20.030Z,92.30
2019-01-12T14:32:48.793Z,92.26
2019-01-12T14:35:18.585Z,92.20
2019-01-12T14:37:47.253Z,92.10
2019-01-12T14:40:18.120Z,92.13
2019-01-12T14:42:46.796Z,92.21
2019-01-12T14:45:18.100Z,92.33
2019-01-12T14:47:46.614Z,92.29
2019-01-12T14:50:15.203Z,92.29
2019-01-12T14:52:43.774Z,92.35
2019-01-12T14:55:15.379Z,92.46
2019-01-12T14:57:44.013Z,92.36
2019-01-12T15:00:17.819Z,92.59
2019-01-12T15:02:46.456Z,92.61
2019-01-12T15:05:17.536Z,92.69
2019-01-12T15:07:46.551Z,92.79
2019-01-12T15:10:17.117Z,92.92
2019-01-12T15:12:46.010Z,93.07
2019-01-12T15:15:16.312Z,93.10
2019-01-12T15:17:44.898Z,93.07
2019-01-12T15:20:18.712Z,93.03
2019-01-12T15:22:47.287Z,93.15
2019-01-12T15:25:15.869Z,93.17
2019-01-12T15:27:44.538Z,93.25
2019-01-12T15:30:16.047Z,93.22
2019-01-12T15:32:44.551Z,93.22
2019-01-12T15:35:13.205Z,93.35
2019-01-12T15:37:43.386Z,93.44
2019-01-12T15:40:17.200Z,93.49
2019-01-12T15:42:45.787Z,93.48
2019-01-12T15:45:19.610Z,93.60
2019-01-12T15:47:48.123Z,93.71
2019-01-12T15:50:18.693Z,93.60
2019-01-12T15:52:47.228Z,93.67
2019-01-12T15:55:15.807Z,93.62
2019-01-12T15:57:44.237Z,93.49
2019-01-12T16:00:20.924Z,93.62
2019-01-12T16:02:49.467Z,93.65
2019-01-12T16:05:17.966Z,93.59
2019-01-12T16:07:46.693Z,93.65
2019-01-12T16:10:17.415Z,93.76
2019-01-12T16:12:45.922Z,93.75
2019-01-12T16:15:17.362Z,93.79
2019-01-12T16:17:46.017Z,93.83
2019-01-12T16:20:17.505Z,93.80
2019-01-12T16:22:46.050Z,93.77
2019-01-12T16:25:14.743Z,93.71
2019-01-12T16:27:43.277Z,93.65
2019-01-12T16:30:17.656Z,93.70
2019-01-12T16:32:46.172Z,93.73
2019-01-12T16:35:15.552Z,93.60
2019-01-12T16:37:44.346Z,93.47
2019-01-12T16:40:15.734Z,93.38
2019-01-12T16:42:44.484Z,93.28
2019-01-12T16:45:13.198Z,93.23
2019-01-12T16:47:41.630Z,93.15
2019-01-12T16:50:10.140Z,93.16
2019-01-12T16:52:38.614Z,93.21
2019-01-12T16:55:10.296Z,93.11
2019-01-12T16:57:38.736Z,93.04
2019-01-12T17:00:10.251Z,93.05
2019-01-12T17:02:38.807Z,93.08
2019-01-12T17:05:07.396Z,93.21
2019-01-12T17:07:36.700Z,93.21
2019-01-12T17:10:08.225Z,93.21
2019-01-12T17:12:36.717Z,93.12
2019-01-12T17:15:08.083Z,93.02
2019-01-12T17:17:36.665Z,92.96
2019-01-12T17:20:08.151Z,93.01
2019-01-12T17:22:36.606Z,93.07
2019-01-12T17:25:06.404Z,92.92
2019-01-12T17:27:34.938Z,92.93
2019-01-12T17:30:04.234Z,92.94
2019-01-12T17:32:32.698Z,92.77
2019-01-12T17:35:01.192Z,92.82
2019-01-12T17:37:29.651Z,92.71
2019-01-12T17:39:58.101Z,92.85
2019-01-12T17:42:26.565Z,92.90
2019-01-12T17:44:55.051Z,93.02
2019-01-12T17:47:23.521Z,93.19
2019-01-12T17:49:52.035Z,93.25
2019-01-12T17:52:20.553Z,92.85
2019-01-12T17:54:49.025Z,92.76
2019-01-12T17:57:17.517Z,92.44
2019-01-12T17:59:45.943Z,92.18
2019-01-12T18:02:14.472Z,92.25
2019-01-12T18:04:42.887Z,92.08
2019-01-12T18:07:11.427Z,91.73
2019-01-12T18:09:39.838Z,91.74
2019-01-12T18:12:08.282Z,91.85
2019-01-12T18:14:36.708Z,91.94
2019-01-12T18:17:05.260Z,91.88
2019-01-12T18:19:33.694Z,91.75
2019-01-12T18:22:02.118Z,91.87
2019-01-12T18:24:30.551Z,91.97
2019-01-12T18:26:58.975Z,92.07
2019-01-12T18:29:27.429Z,91.98
2019-01-12T18:31:55.917Z,91.87
2019-01-12T18:34:24.832Z,91.90
2019-01-12T18:36:53.252Z,91.82
2019-01-12T18:39:21.717Z,91.80
2019-01-12T18:41:50.156Z,91.73
2019-01-12T18:44:18.660Z,91.63
2019-01-12T18:46:47.144Z,91.69
2019-01-12T18:49:15.613Z,91.69
2019-01-12T18:51:44.024Z,91.60
2019-01-12T18:54:12.570Z,91.34
2019-01-12T18:56:41.546Z,91.12
2019-01-12T18:59:10.165Z,91.36
2019-01-12T19:01:38.824Z,91.40
2019-01-12T19:04:07.307Z,91.50
2019-01-12T19:06:35.750Z,91.57
2019-01-12T19:09:07.055Z,91.64
2019-01-12T19:11:35.588Z,91.76
2019-01-12T19:14:05.618Z,91.73
2019-01-12T19:16:34.070Z,91.76
2019-01-12T19:19:02.499Z,91.82
2019-01-12T19:21:30.945Z,92.01
2019-01-12T19:23:59.391Z,92.21
2019-01-12T19:26:27.846Z,92.27
2019-01-12T19:28:56.269Z,92.29
2019-01-12T19:31:24.723Z,92.52
2019-01-12T19:33:53.179Z,92.47
2019-01-12T19:36:21.780Z,92.34
2019-01-12T19:38:50.242Z,92.43
2019-01-12T19:41:18.835Z,92.42
2019-01-12T19:43:47.272Z,92.33
2019-01-12T19:46:15.697Z,92.40
2019-01-12T19:48:44.139Z,92.38
2019-01-12T19:51:12.667Z,92.32
2019-01-12T19:53:41.197Z,92.26
2019-01-12T19:56:09.686Z,92.32
2019-01-12T19:58:38.160Z,92.37
2019-01-12T20:01:06.661Z,92.38
2019-01-12T20:03:35.102Z,92.27
2019-01-12T20:06:03.537Z,92.13
2019-01-12T20:08:32.050Z,92.05
2019-01-12T20:11:00.491Z,92.12
2019-01-12T20:13:29.019Z,92.05
2019-01-12T20:15:57.427Z,92.17
2019-01-12T20:18:26.017Z,92.16
2019-01-12T20:20:54.678Z,92.03
2019-01-12T20:23:23.137Z,91.94
2019-01-12T20:25:51.766Z,92.01
2019-01-12T20:28:20.243Z,92.19
2019-01-12T20:31:08.392Z,92.14
2019-01-12T20:33:57.779Z,92.02
2019-01-12T20:36:41.282Z,91.98
2019-01-12T20:39:27.914Z,91.98
2019-01-12T20:42:36.243Z,91.95
2019-01-12T20:45:33.795Z,91.91
2019-01-12T20:48:08.972Z,91.87
2019-01-12T20:50:44.683Z,91.92
2019-01-12T20:53:21.972Z,91.80
2019-01-12T20:55:53.453Z,91.65
2019-01-12T20:58:30.053Z,91.67
2019-01-12T21:01:21.505Z,91.67
2019-01-12T21:04:02.062Z,91.72
2019-01-12T21:06:39.321Z,91.74
2019-01-12T21:09:10.805Z,91.86
2019-01-12T21:11:42.354Z,91.91
2019-01-12T21:14:26.019Z,91.84
2019-01-12T21:16:54.573Z,91.79
2019-01-12T21:19:22.980Z,91.79
2019-01-12T21:21:51.523Z,91.89
2019-01-12T21:24:20.012Z,92.14
2019-01-12T21:26:48.472Z,92.16
2019-01-12T21:29:16.875Z,92.27
2019-01-12T21:31:45.376Z,92.34
2019-01-12T21:34:13.919Z,92.32
2019-01-12T21:36:42.462Z,92.19
2019-01-12T21:39:11.039Z,92.19
2019-01-12T21:41:39.541Z,92.21
2019-01-12T21:44:08.131Z,92.38
2019-01-12T21:46:36.562Z,92.39
2019-01-12T21:49:05.145Z,92.42
2019-01-12T21:51:33.713Z,92.52
2019-01-12T21:54:02.399Z,92.46
2019-01-12T21:56:30.832Z,92.41
2019-01-12T21:58:59.381Z,92.57
2019-01-12T22:01:28.021Z,92.78
2019-01-12T22:03:56.562Z,92.79
2019-01-12T22:06:25.129Z,92.80
2019-01-12T22:08:53.599Z,92.83
2019-01-12T22:11:22.161Z,92.73
2019-01-12T22:13:50.709Z,92.60
2019-01-12T22:16:19.222Z,92.68
2019-01-12T22:18:47.897Z,92.55
2019-01-12T22:21:16.402Z,92.70
2019-01-12T22:23:45.135Z,92.74
2019-01-12T22:26:13.577Z,92.82
2019-01-12T22:28:42.003Z,92.89
2019-01-12T22:31:10.544Z,92.85
2019-01-12T22:33:38.952Z,92.84
2019-01-12T22:36:07.555Z,92.87
2019-01-12T22:38:35.969Z,92.79
2019-01-12T22:41:04.678Z,92.78
2019-01-12T22:43:33.109Z,92.73
2019-01-12T22:46:01.622Z,92.82
2019-01-12T22:48:30.131Z,92.84
2019-01-12T22:50:58.582Z,92.89
2019-01-12T22:53:27.083Z,92.89
2019-01-12T22:55:55.554Z,92.93
2019-01-12T22:58:23.969Z,92.77
2019-01-12T23:01:10.730Z,92.62
2019-01-12T23:03:40.956Z,92.65
2019-01-12T23:06:09.421Z,92.72
2019-01-12T23:08:37.832Z,92.53
2019-01-12T23:11:06.365Z,92.53
2019-01-12T23:13:34.858Z,92.56
2019-01-12T23:16:03.377Z,92.61
2019-01-12T23:18:31.879Z,92.59
2019-01-12T23:21:00.397Z,92.44
2019-01-12T23:23:28.835Z,92.51
2019-01-12T23:25:57.315Z,92.42
2019-01-12T23:28:25.775Z,92.23
2019-01-12T23:30:54.230Z,92.14
2019-01-12T23:33:23.192Z,92.11
2019-01-12T23:35:51.626Z,92.19
2019-01-12T23:38:20.141Z,92.34
2019-01-12T23:40:48.808Z,92.23
2019-01-12T23:43:17.340Z,92.14
2019-01-12T23:45:45.829Z,92.10
2019-01-12T23:48:14.286Z,92.06
2019-01-12T23:50:44.354Z,91.90
2019-01-12T23:53:13.477Z,92.01
2019-01-12T23:55:42.071Z,91.88
2019-01-12T23:58:10.605Z,91.88
